Time;durP1;ratioP1;P1;durP2;ratioP2;P2;SDS_P1;SDS_P2;PMS_P1;PMS_P2;Temp;Humidity;BMP_temperature;BMP_pressure;BME280_temperature;BME280_humidity;BME280_pressure;Samples;Min_cycle;Max_cycle;Signal;HPM_P1;HPM_P2
2022/05/18 00:03:36;;;;;;;6.37;4.07;;;;;;;20.30;52.91;98476.31;8446911;28;20228;-74
2022/05/18 00:07:41;;;;;;;7.60;4.43;;;;;;;20.34;52.87;98476.91;8431966;28;20233;-75
2022/05/18 00:11:43;;;;;;;6.53;4.20;;;;;;;20.33;53.34;98475.22;8425081;28;20230;-75
2022/05/18 00:15:48;;;;;;;6.67;4.50;;;;;;;20.38;53.19;98481.00;8426820;28;20239;-74
2022/05/18 00:19:51;;;;;;;8.43;4.50;;;;;;;20.16;53.42;98492.28;8422039;28;20232;-74
2022/05/18 00:23:55;;;;;;;6.03;4.10;;;;;;;20.17;53.17;98493.97;8426290;28;20426;-74
2022/05/18 00:27:58;;;;;;;9.47;4.60;;;;;;;20.21;52.88;98489.31;8425052;28;20536;-74
2022/05/18 00:32:02;;;;;;;8.53;4.47;;;;;;;19.96;52.63;98488.53;8421959;28;20221;-74
2022/05/18 00:36:05;;;;;;;8.73;4.80;;;;;;;20.04;52.56;98483.53;8427962;28;20507;-74
2022/05/18 00:40:13;;;;;;;9.47;4.23;;;;;;;20.11;52.65;98482.13;8423659;28;20234;-74
2022/05/18 00:44:16;;;;;;;6.37;4.20;;;;;;;20.09;52.50;98483.22;8413367;28;20233;-74
2022/05/18 00:48:19;;;;;;;7.13;4.23;;;;;;;20.07;52.20;98487.75;8413349;28;20235;-74
2022/05/18 00:52:30;;;;;;;7.70;4.30;;;;;;;20.15;51.90;98490.63;8429573;28;20512;-74
2022/05/18 00:56:39;;;;;;;6.53;4.07;;;;;;;20.01;52.20;98490.81;8421519;28;20232;-75
2022/05/18 01:00:42;;;;;;;6.70;4.07;;;;;;;20.04;52.06;98490.59;8424258;28;20247;-75
2022/05/18 01:04:47;;;;;;;9.13;4.40;;;;;;;19.89;52.30;98482.06;8477005;28;20221;-75
2022/05/18 01:08:54;;;;;;;7.93;4.07;;;;;;;19.98;52.38;98486.63;8479991;28;20510;-75
2022/05/18 01:13:02;;;;;;;7.87;4.13;;;;;;;20.02;52.15;98487.25;8480135;28;20254;-75
2022/05/18 01:17:06;;;;;;;7.13;3.67;;;;;;;20.02;53.06;98490.69;8480016;28;20238;-75
2022/05/18 01:21:09;;;;;;;5.57;4.00;;;;;;;20.03;52.41;98496.78;8485529;28;20225;-76
2022/05/18 01:25:25;;;;;;;6.80;4.00;;;;;;;20.02;52.40;98497.75;8486432;28;20233;-76
2022/05/18 01:29:30;;;;;;;6.53;4.10;;;;;;;19.99;52.25;98504.09;8459754;28;20239;-75
2022/05/18 01:33:34;;;;;;;8.23;4.63;;;;;;;19.92;52.63;98502.88;8452417;28;20231;-75
2022/05/18 01:37:37;;;;;;;5.60;4.37;;;;;;;19.95;52.45;98507.06;8452096;28;20248;-75
2022/05/18 01:41:47;;;;;;;8.67;4.30;;;;;;;19.82;52.84;98505.34;8451908;28;20233;-75
2022/05/18 01:45:52;;;;;;;9.90;4.53;;;;;;;19.97;52.30;98510.41;8451986;28;20231;-76
2022/05/18 01:49:56;;;;;;;7.47;4.40;;;;;;;20.00;52.21;98513.63;8451862;28;20245;-75
2022/05/18 01:53:59;;;;;;;8.47;4.73;;;;;;;19.93;52.47;98512.41;8451814;28;20235;-75
2022/05/18 01:58:02;;;;;;;8.13;4.40;;;;;;;20.02;52.14;98508.28;8451522;28;20540;-76
2022/05/18 02:02:12;;;;;;;6.90;4.10;;;;;;;19.88;52.29;98514.56;8451643;28;20228;-75
2022/05/18 02:06:16;;;;;;;8.73;4.23;;;;;;;19.71;52.41;98516.59;8451377;28;20256;-75
2022/05/18 02:10:19;;;;;;;6.37;3.90;;;;;;;19.80;52.03;98524.78;8451287;28;20240;-75
2022/05/18 02:14:22;;;;;;;10.50;4.23;;;;;;;19.86;52.13;98530.44;8450753;28;20231;-74
2022/05/18 02:18:27;;;;;;;11.40;4.43;;;;;;;19.81;52.92;98526.47;8451137;28;20234;-75
2022/05/18 02:22:29;;;;;;;8.20;4.63;;;;;;;19.82;52.78;98522.88;8450930;28;20546;-75
2022/05/18 02:26:32;;;;;;;9.07;4.60;;;;;;;19.77;52.20;98515.34;8450794;28;20234;-75
2022/05/18 02:30:36;;;;;;;7.13;4.37;;;;;;;19.79;52.34;98520.50;8449974;28;20238;-75
2022/05/18 02:34:40;;;;;;;7.60;4.40;;;;;;;19.78;52.68;98521.44;8450542;28;20246;-76
2022/05/18 02:38:43;;;;;;;7.80;4.40;;;;;;;19.78;52.97;98529.31;8450294;28;20230;-75
2022/05/18 02:42:46;;;;;;;6.43;4.40;;;;;;;19.80;52.60;98528.28;8450318;28;20543;-75
2022/05/18 02:46:49;;;;;;;7.23;4.50;;;;;;;19.81;52.67;98529.09;8450123;28;20230;-74
2022/05/18 02:50:54;;;;;;;7.90;4.57;;;;;;;19.74;52.28;98523.44;8450025;28;20242;-74
2022/05/18 02:59:17;;;;;;;6.30;4.13;;;;;;;19.32;53.79;98526.44;8449782;28;20231;-75
2022/05/18 03:03:20;;;;;;;6.37;4.30;;;;;;;19.47;53.57;98527.09;8449645;28;20238;-75
2022/05/18 03:07:24;;;;;;;10.00;4.83;;;;;;;19.37;53.87;98538.38;8448901;28;20228;-75
2022/05/18 03:11:32;;;;;;;6.27;4.70;;;;;;;19.51;53.51;98541.72;8448938;28;20299;-75
2022/05/18 03:15:35;;;;;;;8.07;5.00;;;;;;;19.54;53.39;98546.72;8449299;28;20556;-75
2022/05/18 03:19:38;;;;;;;8.07;4.70;;;;;;;19.46;53.60;98545.63;8449052;28;20247;-75
2022/05/18 03:23:41;;;;;;;9.40;5.13;;;;;;;19.49;53.50;98542.75;8448996;28;20232;-75
2022/05/18 03:27:44;;;;;;;8.67;4.90;;;;;;;19.44;53.89;98544.84;8448659;28;20509;-75
2022/05/18 03:31:48;;;;;;;6.40;4.77;;;;;;;19.24;54.55;98549.75;8448872;28;20251;-75
2022/05/18 03:35:52;;;;;;;7.20;5.07;;;;;;;19.26;54.66;98558.34;8448635;28;20511;-75
2022/05/18 03:39:56;;;;;;;9.17;5.27;;;;;;;19.29;54.46;98575.69;8448549;28;20502;-75
2022/05/18 03:43:59;;;;;;;6.90;4.63;;;;;;;19.38;54.25;98574.19;8447166;28;20223;-75
2022/05/18 03:48:02;;;;;;;6.80;4.63;;;;;;;19.37;54.87;98569.91;8448265;28;20231;-75
2022/05/18 03:52:05;;;;;;;7.83;4.83;;;;;;;19.38;55.07;98566.31;8448278;28;20535;-75
2022/05/18 03:56:13;;;;;;;7.53;5.37;;;;;;;19.49;55.46;98574.25;8447955;28;20241;-75
2022/05/18 04:00:17;;;;;;;10.40;5.60;;;;;;;19.10;56.09;98570.88;8447699;28;20234;-75
2022/05/18 04:04:20;;;;;;;8.87;5.67;;;;;;;19.14;55.89;98583.69;8447530;28;20231;-75
2022/05/18 04:08:22;;;;;;;7.13;5.40;;;;;;;19.36;55.64;98579.53;8480710;28;20231;-75
2022/05/18 04:12:28;;;;;;;9.10;5.40;;;;;;;19.44;55.11;98573.75;8481108;28;20237;-75
2022/05/18 04:16:30;;;;;;;7.17;5.40;;;;;;;19.33;55.53;98575.34;8480919;28;20233;-74
2022/05/18 04:20:34;;;;;;;10.13;6.00;;;;;;;19.24;55.66;98585.66;8481127;28;20229;-75
2022/05/18 04:24:37;;;;;;;8.97;5.70;;;;;;;19.16;55.78;98586.22;8480949;28;20236;-75
2022/05/18 04:28:41;;;;;;;7.57;5.73;;;;;;;19.42;55.60;98594.03;8480961;28;20239;-75
2022/05/18 04:32:44;;;;;;;8.37;6.30;;;;;;;19.55;54.79;98597.47;8480833;28;20223;-75
2022/05/18 04:36:47;;;;;;;8.87;6.50;;;;;;;19.62;54.90;98600.50;8480863;28;20227;-78
2022/05/18 04:40:50;;;;;;;11.33;6.80;;;;;;;19.54;54.81;98604.50;8480809;28;20419;-76
2022/05/18 04:44:54;;;;;;;6.60;5.80;;;;;;;19.56;55.06;98612.28;8480700;28;20425;-76
2022/05/18 04:48:57;;;;;;;11.53;6.63;;;;;;;19.31;55.78;98618.44;8480640;28;20521;-77
2022/05/18 04:53:00;;;;;;;8.10;6.80;;;;;;;19.45;55.57;98622.72;8481053;28;20229;-77
2022/05/18 04:57:03;;;;;;;8.60;6.40;;;;;;;19.44;55.42;98629.75;8487396;28;20222;-77
2022/05/18 05:01:09;;;;;;;9.50;6.07;;;;;;;19.76;54.58;98629.28;8487127;28;20226;-77
2022/05/18 05:05:14;;;;;;;10.33;6.33;;;;;;;19.82;54.75;98631.50;8487582;28;20238;-77
2022/05/18 05:09:17;;;;;;;7.57;5.93;;;;;;;19.60;55.21;98645.28;8487801;28;20249;-78
2022/05/18 05:13:20;;;;;;;10.60;7.00;;;;;;;19.37;55.94;98644.25;8486919;28;20246;-77
2022/05/18 05:17:25;;;;;;;10.07;6.73;;;;;;;19.36;56.19;98654.88;8486004;28;20236;-76
2022/05/18 05:21:28;;;;;;;7.43;6.50;;;;;;;19.82;54.83;98649.03;8486607;28;20253;-76
2022/05/18 05:25:31;;;;;;;8.33;6.93;;;;;;;19.81;55.23;98650.00;8486533;28;20240;-76
2022/05/18 05:29:34;;;;;;;10.67;7.60;;;;;;;19.61;55.72;98659.22;8486162;28;20231;-76
2022/05/18 05:33:40;;;;;;;10.33;6.97;;;;;;;19.25;56.88;98664.34;8486201;28;20232;-75
2022/05/18 05:37:43;;;;;;;10.27;7.33;;;;;;;19.31;57.27;98663.91;8486224;28;20288;-77
2022/05/18 05:41:46;;;;;;;11.50;7.57;;;;;;;19.53;56.72;98663.25;8485713;28;20223;-77
2022/05/18 05:45:56;;;;;;;10.97;7.60;;;;;;;19.59;55.55;98659.38;8485729;28;20506;-78
2022/05/18 05:50:00;;;;;;;9.80;8.20;;;;;;;19.51;56.35;98662.53;8485418;28;20242;-78
2022/05/18 05:54:03;;;;;;;9.53;7.63;;;;;;;19.70;55.97;98674.34;8485581;28;20228;-77
2022/05/18 05:58:06;;;;;;;12.93;7.63;;;;;;;20.07;55.37;98672.63;8485412;28;20248;-77
2022/05/18 06:02:11;;;;;;;13.20;8.10;;;;;;;20.03;55.17;98670.28;8485121;28;20237;-78
2022/05/18 06:06:19;;;;;;;12.57;7.90;;;;;;;19.83;54.69;98679.63;8484046;28;20231;-77
2022/05/18 06:10:22;;;;;;;11.10;7.70;;;;;;;20.24;53.95;98678.44;8484643;28;20240;-77
2022/05/18 06:14:24;;;;;;;9.37;7.47;;;;;;;20.10;54.57;98685.56;8484460;28;20235;-77
2022/05/18 06:18:29;;;;;;;10.20;7.10;;;;;;;20.23;53.90;98701.25;8484447;28;20235;-77
2022/05/18 06:22:34;;;;;;;9.40;7.93;;;;;;;20.17;54.04;98699.06;8484806;28;20238;-77
2022/05/18 06:26:37;;;;;;;10.07;7.23;;;;;;;20.10;54.13;98709.22;8484372;28;20523;-77
2022/05/18 06:30:41;;;;;;;9.80;7.37;;;;;;;20.23;54.13;98706.50;8484461;28;20564;-77
2022/05/18 06:34:44;;;;;;;8.10;7.30;;;;;;;20.01;54.71;98712.50;8483959;28;20246;-78
2022/05/18 06:38:49;;;;;;;8.20;7.30;;;;;;;20.22;54.07;98706.63;8469113;28;20477;-77
2022/05/18 06:42:52;;;;;;;8.80;6.70;;;;;;;20.56;53.48;98712.91;8466399;28;20221;-77
2022/05/18 06:46:58;;;;;;;14.63;7.73;;;;;;;20.87;52.59;98713.31;8467269;28;20256;-77
2022/05/18 06:51:01;;;;;;;11.77;7.40;;;;;;;20.91;53.06;98709.47;8478034;28;20227;-77
2022/05/18 06:55:07;;;;;;;8.20;7.37;;;;;;;20.82;52.23;98711.00;8483923;28;20244;-76
2022/05/18 06:59:10;;;;;;;12.97;7.90;;;;;;;20.40;53.21;98715.81;8483821;28;20233;-76
2022/05/18 07:03:14;;;;;;;10.23;7.63;;;;;;;20.81;52.49;98705.84;8483366;28;20225;-76
2022/05/18 07:07:17;;;;;;;9.57;7.50;;;;;;;20.67;52.59;98706.88;8483268;28;20232;-76
2022/05/18 07:11:22;;;;;;;9.93;7.77;;;;;;;20.99;52.56;98707.09;8482978;28;20249;-76
2022/05/18 07:15:25;;;;;;;10.93;7.73;;;;;;;21.31;51.62;98703.81;8448795;28;20220;-75
2022/05/18 07:19:30;;;;;;;11.20;7.03;;;;;;;21.72;50.32;98699.78;8449101;28;20512;-75
2022/05/18 07:23:33;;;;;;;9.90;7.00;;;;;;;21.76;51.28;98689.81;8449084;28;20451;-76
2022/05/18 07:27:39;;;;;;;10.40;6.80;;;;;;;22.47;49.60;98690.31;8449019;28;20226;-76
2022/05/18 07:32:13;;;;;;;9.10;7.03;;;;;;;22.86;48.85;98689.78;8448632;28;20233;-76
2022/05/18 07:36:17;;;;;;;13.30;7.90;;;;;;;22.68;48.23;98694.78;8448525;28;20245;-76
2022/05/18 07:40:20;;;;;;;14.57;8.07;;;;;;;23.10;47.98;98693.03;8448609;28;20253;-76
2022/05/18 07:44:25;;;;;;;12.93;7.67;;;;;;;23.12;47.57;98706.94;8481572;28;20229;-75
2022/05/18 07:48:29;;;;;;;9.70;7.27;;;;;;;23.77;46.45;98704.06;8464583;28;20234;-75
2022/05/18 07:52:32;;;;;;;13.03;8.40;;;;;;;23.43;46.37;98705.16;8447973;28;20234;-76
2022/05/18 07:56:35;;;;;;;11.70;7.93;;;;;;;24.21;45.28;98715.19;8447997;28;20230;-76
2022/05/18 08:00:40;;;;;;;12.37;7.77;;;;;;;24.34;43.86;98713.13;8447892;28;20248;-78
2022/05/18 08:04:43;;;;;;;11.80;7.37;;;;;;;24.21;44.24;98704.59;8477750;28;20248;-78
2022/05/18 08:08:46;;;;;;;13.47;7.47;;;;;;;23.98;44.96;98712.78;8481316;28;20235;-79
2022/05/18 08:17:11;;;;;;;12.73;6.33;;;;;;;24.85;43.00;98707.75;8481160;28;20242;-76
2022/05/18 08:21:14;;;;;;;12.43;6.23;;;;;;;25.06;42.39;98712.88;8456182;28;20232;-76
2022/05/18 08:25:17;;;;;;;11.23;6.80;;;;;;;24.93;43.31;98707.88;8449629;28;20330;-76
2022/05/18 08:29:22;;;;;;;10.47;6.20;;;;;;;24.92;42.16;98714.13;8462988;28;20220;-76
2022/05/18 08:33:28;;;;;;;8.67;5.70;;;;;;;25.12;41.57;98713.13;8443992;28;20224;-75
2022/05/18 08:37:31;;;;;;;7.20;5.53;;;;;;;24.97;40.59;98706.59;8463117;27;20442;-75
2022/05/18 08:41:39;;;;;;;9.03;5.83;;;;;;;24.74;41.19;98714.84;8463215;28;20222;-75
2022/05/18 08:45:47;;;;;;;12.43;6.33;;;;;;;24.81;40.28;98720.44;8470653;28;20249;-76
2022/05/18 08:49:57;;;;;;;9.20;6.03;;;;;;;24.95;40.97;98713.88;8480313;28;20234;-75
2022/05/18 08:54:08;;;;;;;11.80;5.37;;;;;;;24.88;40.09;98721.53;8480651;28;20235;-76
2022/05/18 08:58:15;;;;;;;8.73;5.27;;;;;;;24.77;40.58;98719.88;8465418;28;20225;-76
2022/05/18 09:02:21;;;;;;;11.67;4.97;;;;;;;25.65;38.81;98711.75;8447262;28;20239;-76
2022/05/18 09:06:33;;;;;;;10.23;5.27;;;;;;;25.48;39.05;98709.88;8430515;28;20226;-76
2022/05/18 09:10:42;;;;;;;8.93;4.30;;;;;;;25.99;38.03;98707.72;8431259;28;20228;-76
2022/05/18 09:14:45;;;;;;;8.87;5.80;;;;;;;25.66;38.07;98717.91;8423963;28;20414;-76
2022/05/18 09:18:55;;;;;;;9.63;5.70;;;;;;;25.74;38.89;98712.69;8424154;28;20224;-77
2022/05/18 09:23:13;;;;;;;9.53;5.50;;;;;;;25.43;39.19;98714.78;8413143;28;20244;-76
2022/05/18 09:27:26;;;;;;;5.23;4.53;;;;;;;26.46;37.12;98713.69;8448785;28;20529;-76
2022/05/18 09:31:39;;;;;;;7.43;4.60;;;;;;;26.31;38.00;98701.94;8477880;28;20237;-76
2022/05/18 09:36:13;;;;;;;9.60;4.60;;;;;;;25.87;37.27;98707.88;8479746;28;20431;-76
2022/05/18 09:40:20;;;;;;;6.97;4.70;;;;;;;25.91;37.98;98704.00;8464607;28;20230;-75
2022/05/18 09:44:29;;;;;;;11.47;4.70;;;;;;;26.10;37.66;98707.50;8485784;28;20230;-75
2022/05/18 09:48:37;;;;;;;7.57;4.80;;;;;;;27.07;36.42;98700.63;8485801;28;20237;-76
2022/05/18 09:52:41;;;;;;;11.30;4.87;;;;;;;26.69;36.24;98705.31;8485353;28;20563;-75
2022/05/18 09:56:48;;;;;;;8.17;3.73;;;;;;;27.21;35.62;98705.38;8485704;28;20225;-75
2022/05/18 10:07:26;;;;;;;6.10;3.30;;;;;;;26.74;33.83;98702.19;8485744;28;20225;-76
2022/05/18 10:09:42;;;;;;;8.90;3.90;;;;;;;27.42;34.23;98697.06;8451031;28;20349;-76
2022/05/18 10:13:56;;;;;;;4.43;2.70;;;;;;;27.77;31.73;98700.53;8451073;28;20231;-76
2022/05/18 10:18:02;;;;;;;5.20;3.10;;;;;;;27.71;32.66;98698.53;8451172;28;20229;-76
2022/05/18 10:22:06;;;;;;;3.97;2.90;;;;;;;28.04;31.88;98698.66;8450555;28;20524;-76
2022/05/18 10:26:10;;;;;;;5.10;3.20;;;;;;;27.48;33.36;98696.41;8450726;28;20424;-76
2022/05/18 10:30:18;;;;;;;4.80;3.10;;;;;;;28.31;32.04;98697.59;8450853;28;20425;-75
2022/05/18 10:34:26;;;;;;;8.90;3.67;;;;;;;27.77;31.23;98697.88;8450695;28;20237;-76
2022/05/18 10:38:31;;;;;;;6.03;3.07;;;;;;;28.14;31.52;98698.53;8449874;28;20422;-76
2022/05/18 10:42:44;;;;;;;6.30;2.53;;;;;;;28.35;29.93;98685.59;8450297;28;20557;-75
2022/05/18 10:46:50;;;;;;;5.03;2.90;;;;;;;28.12;30.94;98688.06;8450473;28;20236;-76
2022/05/18 10:51:01;;;;;;;5.67;3.13;;;;;;;28.83;30.60;98678.66;8449342;28;20237;-76
2022/05/18 10:55:14;;;;;;;9.93;3.20;;;;;;;28.90;30.43;98675.31;8450448;28;20226;-78
2022/05/18 10:59:24;;;;;;;6.73;3.17;;;;;;;29.04;29.75;98671.97;8450256;28;20541;-76
2022/05/18 11:03:35;;;;;;;5.53;2.80;;;;;;;29.18;30.09;98665.97;8460665;28;20239;-75
2022/05/18 11:07:37;;;;;;;5.83;2.63;;;;;;;29.10;29.71;98654.47;8483230;28;20233;-75
2022/05/18 11:11:45;;;;;;;7.00;2.83;;;;;;;29.38;30.21;98649.59;8482898;28;20232;-75
2022/05/18 11:15:51;;;;;;;2.93;1.90;;;;;;;29.03;28.04;98644.50;8483170;28;20229;-75
2022/05/18 11:20:01;;;;;;;6.30;2.27;;;;;;;29.39;28.47;98648.59;8482866;28;20226;-75
2022/05/18 11:24:09;;;;;;;6.10;2.37;;;;;;;29.13;28.67;98644.34;8482921;28;20225;-75
2022/05/18 11:28:20;;;;;;;3.87;2.30;;;;;;;29.39;28.09;98636.06;8482655;28;20422;-75
2022/05/18 11:32:30;;;;;;;3.50;2.17;;;;;;;29.89;27.52;98631.41;8456494;28;20242;-75
2022/05/18 11:36:41;;;;;;;3.90;2.40;;;;;;;29.45;29.10;98626.53;8449092;28;20526;-75
2022/05/18 11:40:52;;;;;;;5.27;2.87;;;;;;;29.48;28.41;98622.72;8448343;28;20242;-75
2022/05/18 11:45:06;;;;;;;6.33;2.90;;;;;;;28.80;28.71;98617.69;8448567;28;20227;-75
2022/05/18 11:49:17;;;;;;;4.00;2.40;;;;;;;28.91;28.72;98616.50;8448571;28;20231;-76
2022/05/18 11:53:35;;;;;;;6.27;2.40;;;;;;;29.24;28.88;98614.63;8448244;28;20243;-76
2022/05/18 11:57:45;;;;;;;6.70;2.37;;;;;;;29.34;27.47;98614.44;8447742;28;20234;-76
2022/05/18 12:01:51;;;;;;;5.47;2.50;;;;;;;29.11;27.78;98608.13;8442868;28;20294;-76
2022/05/18 12:06:03;;;;;;;5.13;2.53;;;;;;;29.18;27.44;98609.16;8413383;28;20387;-76
2022/05/18 12:10:17;;;;;;;6.33;2.37;;;;;;;29.57;28.44;98608.34;8414379;28;20431;-77
2022/05/18 12:14:29;;;;;;;4.57;2.30;;;;;;;29.62;28.42;98604.16;8414414;28;20248;-76
2022/05/18 12:18:37;;;;;;;6.47;2.40;;;;;;;30.14;27.81;98604.50;8447309;28;20388;-76
2022/05/18 12:22:42;;;;;;;9.27;3.10;;;;;;;30.04;26.84;98595.91;8447470;28;20243;-76
2022/05/18 12:26:47;;;;;;;4.93;2.33;;;;;;;29.68;27.00;98596.44;8447411;28;20544;-76
2022/05/18 12:30:50;;;;;;;5.07;2.70;;;;;;;29.89;27.70;98593.16;8447528;28;20286;-76
2022/05/18 12:35:07;;;;;;;6.97;2.40;;;;;;;29.81;26.59;98594.88;8447197;28;20227;-76
2022/05/18 12:39:13;;;;;;;7.73;2.63;;;;;;;30.01;27.08;98589.09;8447108;28;20427;-76
2022/05/18 12:43:25;;;;;;;4.80;2.53;;;;;;;30.06;27.78;98589.38;8447242;28;20531;-76
2022/05/18 12:47:41;;;;;;;6.73;2.73;;;;;;;29.57;27.66;98601.16;8413508;28;20236;-76
2022/05/18 12:51:55;;;;;;;7.80;2.40;;;;;;;29.87;26.57;98596.00;8413476;28;20511;-76
2022/05/18 12:56:02;;;;;;;7.97;2.50;;;;;;;29.63;27.36;98597.78;8413444;28;20237;-75
2022/05/18 13:00:40;;;;;;;11.27;2.57;;;;;;;29.59;27.78;98587.66;8413349;28;20267;-75
2022/05/18 13:04:47;;;;;;;3.83;2.67;;;;;;;29.61;28.24;98594.47;8476123;28;20226;-75
2022/05/18 13:09:00;;;;;;;7.63;2.60;;;;;;;29.48;27.47;98594.19;8480294;28;20229;-73
2022/05/18 13:13:05;;;;;;;6.07;2.60;;;;;;;29.50;27.09;98594.84;8480286;28;20240;-73
2022/05/18 13:17:17;;;;;;;5.33;2.67;;;;;;;29.93;27.05;98589.13;8485651;28;20242;-73
2022/05/18 13:21:28;;;;;;;5.87;2.63;;;;;;;29.88;27.67;98586.19;8486810;28;20230;-73
2022/05/18 13:25:34;;;;;;;5.17;2.53;;;;;;;30.13;27.10;98576.16;8452481;28;20318;-73
2022/05/18 13:29:37;;;;;;;5.17;2.43;;;;;;;28.80;27.78;98579.56;8452817;28;20227;-73
2022/05/18 13:33:47;;;;;;;4.90;2.90;;;;;;;29.37;28.32;98579.41;8452505;28;20541;-74
2022/05/18 13:37:53;;;;;;;4.10;2.40;;;;;;;28.76;29.31;98575.56;8452634;28;20286;-73
2022/05/18 13:41:57;;;;;;;5.03;2.60;;;;;;;28.11;28.97;98563.09;8452224;28;20299;-73
2022/05/18 13:46:04;;;;;;;50.90;5.03;;;;;;;27.71;29.41;98564.66;8452449;28;20395;-73
2022/05/18 13:50:16;;;;;;;5.43;2.30;;;;;;;28.69;29.05;98559.41;8452325;28;20238;-73
2022/05/18 13:54:22;;;;;;;5.17;2.40;;;;;;;29.28;28.12;98563.59;8452026;28;20252;-73
2022/05/18 13:58:26;;;;;;;5.53;2.20;;;;;;;28.79;27.20;98560.06;8485446;28;20508;-77
2022/05/18 14:02:32;;;;;;;9.73;2.43;;;;;;;28.67;27.65;98550.75;8485653;28;20236;-73
2022/05/18 14:06:37;;;;;;;5.43;2.10;;;;;;;29.51;29.14;98548.50;8485145;28;20282;-74
2022/05/18 14:10:47;;;;;;;8.73;2.10;;;;;;;29.73;28.10;98546.06;8485186;28;20230;-74
2022/05/18 14:14:52;;;;;;;6.17;2.00;;;;;;;29.40;26.79;98549.72;8485020;28;20241;-75
2022/05/18 14:18:57;;;;;;;7.77;2.27;;;;;;;29.42;26.82;98539.69;8484793;28;20230;-74
2022/05/18 14:23:04;;;;;;;4.23;2.20;;;;;;;28.91;27.36;98544.53;8485101;28;20291;-74
2022/05/18 14:27:11;;;;;;;3.93;1.83;;;;;;;29.02;27.49;98549.50;8483643;28;20234;-74
2022/05/18 14:31:17;;;;;;;5.57;2.90;;;;;;;28.51;26.73;98538.28;8484548;28;20547;-75
2022/05/18 14:35:22;;;;;;;2.93;1.63;;;;;;;28.63;27.38;98541.44;8484483;28;20549;-75
2022/05/18 14:39:29;;;;;;;2.40;1.60;;;;;;;28.83;27.42;98531.25;8483978;28;20517;-72
2022/05/18 14:43:32;;;;;;;4.33;1.97;;;;;;;28.84;26.95;98532.91;8484007;28;20239;-75
2022/05/18 14:47:46;;;;;;;4.37;1.83;;;;;;;28.89;26.35;98529.72;8484058;28;20231;-75
2022/05/18 14:51:57;;;;;;;4.67;1.87;;;;;;;28.72;26.14;98527.09;8483879;28;20509;-75
2022/05/18 14:56:07;;;;;;;2.40;1.87;;;;;;;28.65;26.44;98524.31;8483900;28;20372;-75
2022/05/18 15:00:14;;;;;;;3.83;1.73;;;;;;;28.79;25.95;98520.09;8483537;28;20236;-76
2022/05/18 15:04:23;;;;;;;5.03;1.90;;;;;;;28.70;25.80;98517.63;8483520;28;20251;-75
2022/05/18 15:08:33;;;;;;;2.93;1.90;;;;;;;28.97;26.62;98513.69;8449416;28;20222;-75
2022/05/18 15:12:40;;;;;;;7.00;1.90;;;;;;;29.10;27.62;98518.50;8449399;28;20241;-75
2022/05/18 15:16:46;;;;;;;6.37;2.00;;;;;;;28.89;26.63;98508.41;8449643;28;20229;-75
2022/05/18 15:20:57;;;;;;;7.23;2.00;;;;;;;28.74;26.86;98513.63;8449353;28;20610;-75
2022/05/18 15:25:27;;;;;;;4.73;1.80;;;;;;;28.41;26.48;98511.00;8449321;28;20245;-75
2022/05/18 15:29:35;;;;;;;6.30;2.07;;;;;;;28.31;28.47;98516.50;8449243;28;20530;-75
2022/05/18 15:33:44;;;;;;;8.07;2.27;;;;;;;28.12;28.76;98514.16;8448422;28;20240;-75
2022/05/18 15:37:50;;;;;;;7.97;2.33;;;;;;;27.99;28.68;98520.00;8448699;28;20267;-75
2022/05/18 15:41:52;;;;;;;4.50;2.30;;;;;;;28.20;28.90;98512.34;8448825;28;20233;-75
2022/05/18 15:46:00;;;;;;;7.00;2.80;;;;;;;27.93;30.43;98515.31;8448534;28;20241;-75
2022/05/18 15:50:04;;;;;;;3.47;2.40;;;;;;;28.31;30.00;98519.16;8448195;28;20333;-76
2022/05/18 15:54:07;;;;;;;3.47;2.50;;;;;;;27.94;30.31;98517.81;8448116;28;20266;-76
2022/05/18 15:58:10;;;;;;;6.33;2.73;;;;;;;28.01;30.28;98516.16;8448270;28;20247;-76
2022/05/18 16:02:14;;;;;;;4.57;2.63;;;;;;;27.71;30.52;98516.78;8448548;28;20241;-77
2022/05/18 16:06:22;;;;;;;5.27;2.40;;;;;;;27.59;30.78;98518.94;8483356;28;20532;-75
2022/05/18 16:10:25;;;;;;;4.80;2.60;;;;;;;27.67;30.28;98518.94;8455774;28;20237;-75
2022/05/18 16:14:28;;;;;;;6.57;2.30;;;;;;;27.42;30.91;98512.72;8462410;28;20243;-75
2022/05/18 16:18:33;;;;;;;5.00;2.40;;;;;;;27.52;30.56;98510.75;8481643;28;20416;-75
2022/05/18 16:22:36;;;;;;;6.27;2.50;;;;;;;27.55;30.73;98505.13;8481513;28;20225;-75
2022/05/18 16:26:46;;;;;;;5.77;2.37;;;;;;;27.36;30.13;98506.22;8481325;28;20251;-75
2022/05/18 16:30:50;;;;;;;4.37;2.40;;;;;;;27.44;30.20;98502.75;8481008;28;20302;-76
2022/05/18 16:35:08;;;;;;;3.10;2.40;;;;;;;27.46;30.78;98498.94;8474470;28;20339;-74
2022/05/18 16:39:11;;;;;;;4.27;2.30;;;;;;;26.98;31.40;98511.06;8446869;28;20232;-76
2022/05/18 16:43:14;;;;;;;8.13;2.20;;;;;;;27.22;30.76;98504.16;8446916;28;20232;-75
2022/05/18 16:47:17;;;;;;;5.97;2.30;;;;;;;27.24;31.01;98497.66;8447106;28;20302;-77
2022/05/18 16:51:21;;;;;;;4.80;2.30;;;;;;;26.84;31.69;98503.66;8451155;28;20228;-77
2022/05/18 16:55:24;;;;;;;18.17;2.80;;;;;;;26.82;31.56;98498.50;8479386;28;20515;-75
2022/05/18 16:59:31;;;;;;;5.43;2.40;;;;;;;26.60;32.01;98491.06;8487326;28;20231;-75
2022/05/18 17:03:35;;;;;;;5.67;2.40;;;;;;;26.82;32.12;98493.19;8487426;28;20235;-76
2022/05/18 17:07:45;;;;;;;8.90;2.80;;;;;;;26.78;32.21;98489.19;8487310;28;20224;-75
2022/05/18 17:11:50;;;;;;;9.33;3.63;;;;;;;26.62;32.37;98495.25;8486903;28;20241;-75
2022/05/18 17:15:53;;;;;;;5.93;2.77;;;;;;;26.57;32.46;98494.84;8486301;28;20234;-76
2022/05/18 17:19:56;;;;;;;8.83;4.00;;;;;;;26.48;32.59;98495.78;8486752;28;20230;-75
2022/05/18 17:24:01;;;;;;;4.43;2.67;;;;;;;26.46;32.69;98489.81;8486513;28;20546;-78
2022/05/18 17:28:04;;;;;;;3.93;2.30;;;;;;;26.48;32.74;98499.31;8486469;28;20226;-75
2022/05/18 17:32:08;;;;;;;4.00;2.20;;;;;;;26.28;32.84;98492.53;8486075;28;20239;-75
2022/05/18 17:36:11;;;;;;;4.83;2.50;;;;;;;26.23;32.62;98492.97;8485969;28;20246;-74
2022/05/18 17:40:15;;;;;;;5.83;2.30;;;;;;;25.98;33.74;98491.97;8485815;28;20431;-77
2022/05/18 17:44:18;;;;;;;5.43;2.60;;;;;;;26.06;33.14;98493.84;8485747;28;20438;-77
2022/05/18 17:48:23;;;;;;;4.13;2.30;;;;;;;26.17;33.58;98490.94;8485730;28;20534;-76
2022/05/18 17:52:27;;;;;;;3.93;2.10;;;;;;;26.02;33.10;98503.09;8459405;27;20232;-76
2022/05/18 17:56:32;;;;;;;3.40;2.40;;;;;;;26.06;33.40;98497.31;8451722;28;20255;-76
2022/05/18 18:00:54;;;;;;;6.10;2.20;;;;;;;25.82;32.82;98492.63;8450033;28;20230;-76
2022/05/18 18:05:00;;;;;;;6.27;2.27;;;;;;;25.87;32.69;98498.28;8451551;28;20239;-75
2022/05/18 18:09:03;;;;;;;6.13;2.50;;;;;;;25.74;32.72;98498.69;8451331;28;20239;-76
2022/05/18 18:13:08;;;;;;;5.33;2.33;;;;;;;25.74;32.84;98504.00;8451154;28;20230;-76
2022/05/18 18:17:13;;;;;;;7.27;2.33;;;;;;;25.59;33.37;98509.97;8451077;28;20236;-75
2022/05/18 18:21:17;;;;;;;6.17;2.23;;;;;;;25.58;33.05;98498.53;8450979;28;20237;-77
2022/05/18 18:25:21;;;;;;;7.47;2.50;;;;;;;25.59;33.64;98508.16;8450817;28;20235;-76
2022/05/18 18:29:25;;;;;;;5.60;2.13;;;;;;;25.54;33.49;98503.28;8450456;28;20230;-75
2022/05/18 18:33:30;;;;;;;5.23;2.67;;;;;;;25.46;34.48;98511.16;8450604;28;20238;-76
2022/05/18 18:37:33;;;;;;;4.67;2.20;;;;;;;25.37;34.28;98506.75;8450697;28;20416;-76
2022/05/18 18:41:40;;;;;;;6.40;2.40;;;;;;;25.36;34.63;98519.19;8450486;28;20245;-76
2022/05/18 18:50:07;;;;;;;5.40;2.33;;;;;;;25.16;35.73;98522.88;8450217;28;20336;-76
2022/05/18 18:58:33;;;;;;;4.00;2.50;;;;;;;25.00;36.78;98517.38;8449451;28;20235;-76
2022/05/18 19:02:38;;;;;;;4.53;2.90;;;;;;;24.89;36.48;98527.19;8449743;28;20448;-76
2022/05/18 19:06:42;;;;;;;4.77;2.73;;;;;;;24.86;36.51;98526.63;8449626;28;20261;-76
2022/05/18 19:10:46;;;;;;;3.80;2.40;;;;;;;24.83;37.02;98526.91;8449176;28;20237;-76
2022/05/18 19:14:52;;;;;;;5.10;2.57;;;;;;;24.77;37.23;98521.25;8448920;28;20236;-75
2022/05/18 19:18:58;;;;;;;9.47;2.33;;;;;;;24.70;37.04;98532.56;8449192;28;20433;-76
2022/05/18 19:23:07;;;;;;;3.80;2.40;;;;;;;24.71;37.59;98536.84;8431963;28;20244;-76
2022/05/18 19:27:11;;;;;;;5.00;2.60;;;;;;;24.59;38.18;98539.69;8431952;28;20524;-76
2022/05/18 19:31:14;;;;;;;6.73;2.60;;;;;;;24.51;38.21;98539.56;8458445;28;20228;-76
2022/05/18 19:35:19;;;;;;;6.23;2.60;;;;;;;24.39;37.92;98551.28;8464801;28;20227;-76
2022/05/18 19:39:22;;;;;;;4.53;2.60;;;;;;;24.43;38.12;98554.44;8451414;28;20511;-75